Time;durP1;ratioP1;P1;durP2;ratioP2;P2;SDS_P1;SDS_P2;PMS_P1;PMS_P2;Temp;Humidity;BMP_temperature;BMP_pressure;BME280_temperature;BME280_humidity;BME280_pressure;Samples;Min_cycle;Max_cycle;Signal;HPM_P1;HPM_P2
2023/09/15 00:02:01;;;;;;;10.05;8.43;;;16.10;99.90;;;;;;4940252;29;20494;-82
2023/09/15 00:04:26;;;;;;;10.50;7.88;;;16.10;99.90;;;;;;4939344;29;20055;-82
2023/09/15 00:06:52;;;;;;;9.52;8.07;;;16.00;99.90;;;;;;4941230;29;20050;-82
2023/09/15 00:09:18;;;;;;;10.18;7.88;;;16.00;99.90;;;;;;4939325;29;20033;-82
2023/09/15 00:11:47;;;;;;;9.63;7.93;;;16.00;99.90;;;;;;4940040;29;20023;-82
2023/09/15 00:14:14;;;;;;;9.48;7.30;;;16.00;99.90;;;;;;4940905;29;20051;-82
2023/09/15 00:16:42;;;;;;;9.48;7.75;;;15.90;99.90;;;;;;4938077;29;20031;-82
2023/09/15 00:19:13;;;;;;;10.43;7.00;;;15.90;99.90;;;;;;4940209;29;20131;-82
2023/09/15 00:21:39;;;;;;;10.85;7.35;;;15.80;99.90;;;;;;4939766;29;20035;-82
2023/09/15 00:24:07;;;;;;;11.02;7.43;;;15.80;99.90;;;;;;4941253;29;20049;-82
2023/09/15 00:26:33;;;;;;;9.43;8.32;;;15.70;99.90;;;;;;4938520;28;20027;-82
2023/09/15 00:29:02;;;;;;;14.15;7.93;;;15.60;99.90;;;;;;4938428;29;20356;-82
2023/09/15 00:31:30;;;;;;;12.23;8.02;;;15.60;99.90;;;;;;4939627;29;20509;-82
2023/09/15 00:33:56;;;;;;;8.80;7.90;;;15.50;99.90;;;;;;4941043;29;20616;-82
2023/09/15 00:36:22;;;;;;;11.63;8.18;;;15.40;99.90;;;;;;4940450;29;20031;-81
2023/09/15 00:38:48;;;;;;;11.80;8.25;;;15.40;99.90;;;;;;4939353;29;20031;-82
2023/09/15 00:41:13;;;;;;;10.82;7.70;;;15.30;99.90;;;;;;4939736;29;20032;-81
2023/09/15 00:43:39;;;;;;;10.95;8.80;;;15.30;99.90;;;;;;4939572;29;20112;-83
2023/09/15 00:46:06;;;;;;;11.77;9.02;;;15.20;99.90;;;;;;4939149;29;20024;-82
2023/09/15 00:48:32;;;;;;;11.73;8.43;;;15.20;99.90;;;;;;4940947;29;20046;-81
2023/09/15 00:50:58;;;;;;;12.70;9.10;;;15.10;99.90;;;;;;4938682;29;20043;-82
2023/09/15 00:53:24;;;;;;;10.43;8.63;;;15.10;99.90;;;;;;4942058;29;20027;-82
2023/09/15 00:55:51;;;;;;;13.38;9.98;;;15.00;99.90;;;;;;4939475;29;20016;-81
2023/09/15 00:58:18;;;;;;;10.90;9.02;;;15.00;99.90;;;;;;4944060;29;20035;-82
2023/09/15 01:00:45;;;;;;;11.98;9.82;;;14.90;99.90;;;;;;4943362;29;20070;-82
2023/09/15 01:03:17;;;;;;;15.13;10.18;;;14.90;99.90;;;;;;4945632;29;20112;-82
2023/09/15 01:05:45;;;;;;;13.80;10.48;;;14.80;99.90;;;;;;4933143;29;20035;-81
2023/09/15 01:08:11;;;;;;;11.43;10.18;;;14.80;99.90;;;;;;4966839;28;20044;-80
2023/09/15 01:10:36;;;;;;;12.50;9.30;;;14.70;99.90;;;;;;4966379;28;20035;-80
2023/09/15 01:13:02;;;;;;;13.32;10.13;;;14.70;99.90;;;;;;4944444;29;21352;-81
2023/09/15 01:15:47;;;;;;;13.55;10.82;;;14.70;99.90;;;;;;4938932;29;20138;-81
2023/09/15 01:18:40;;;;;;;15.45;10.65;;;14.60;99.90;;;;;;4941151;29;20163;-82
2023/09/15 01:21:27;;;;;;;14.10;10.98;;;14.60;99.90;;;;;;4940389;29;20039;-82
2023/09/15 01:24:11;;;;;;;16.25;11.85;;;14.50;99.90;;;;;;4942005;29;20031;-82
2023/09/15 01:27:12;;;;;;;13.52;10.63;;;14.50;99.90;;;;;;4944404;29;20406;-82
2023/09/15 01:29:48;;;;;;;13.45;11.18;;;14.50;99.90;;;;;;4939559;29;20705;-82
2023/09/15 01:32:16;;;;;;;14.40;12.23;;;14.40;99.90;;;;;;4939796;29;20151;-81
2023/09/15 01:34:48;;;;;;;18.98;12.75;;;14.40;99.90;;;;;;4940702;29;20534;-81
2023/09/15 01:37:14;;;;;;;17.25;13.60;;;14.30;99.90;;;;;;4942487;29;20036;-81
2023/09/15 01:39:40;;;;;;;18.00;13.18;;;14.30;99.90;;;;;;4944710;29;20085;-81
2023/09/15 01:42:05;;;;;;;18.05;12.88;;;14.30;99.90;;;;;;4944602;29;20031;-82
2023/09/15 01:44:31;;;;;;;20.33;15.35;;;14.30;99.90;;;;;;4944388;29;20058;-82
2023/09/15 01:46:56;;;;;;;20.35;14.32;;;14.20;99.90;;;;;;4942674;29;21371;-81
2023/09/15 01:49:22;;;;;;;19.52;13.25;;;14.20;99.90;;;;;;4943198;29;20029;-82
2023/09/15 01:51:49;;;;;;;17.90;14.10;;;14.20;99.90;;;;;;4946269;29;20028;-81
2023/09/15 01:54:16;;;;;;;19.23;13.15;;;14.20;99.90;;;;;;4946410;29;20023;-82
2023/09/15 01:56:41;;;;;;;17.23;14.10;;;14.20;99.90;;;;;;4946601;29;20035;-81
2023/09/15 01:59:07;;;;;;;17.58;13.93;;;14.20;99.90;;;;;;4942992;29;20049;-81
2023/09/15 02:01:32;;;;;;;21.20;14.27;;;14.20;99.90;;;;;;4938724;29;20170;-81
2023/09/15 02:03:58;;;;;;;17.17;13.80;;;14.20;99.90;;;;;;4942448;29;20522;-82
2023/09/15 02:06:23;;;;;;;16.65;14.00;;;14.20;99.90;;;;;;4946240;29;20075;-81
2023/09/15 02:08:49;;;;;;;18.27;14.82;;;14.10;99.90;;;;;;4942766;29;20058;-81
2023/09/15 02:11:16;;;;;;;17.70;14.77;;;14.10;99.90;;;;;;4943933;29;20051;-82
2023/09/15 02:13:42;;;;;;;19.48;14.77;;;14.10;99.90;;;;;;4944749;29;20035;-81
2023/09/15 02:16:08;;;;;;;17.98;15.02;;;14.10;99.90;;;;;;4943965;29;20028;-81
2023/09/15 02:18:33;;;;;;;16.50;14.25;;;14.10;99.90;;;;;;4944764;29;20039;-81
2023/09/15 02:21:00;;;;;;;18.35;13.85;;;14.10;99.90;;;;;;4942204;29;20051;-81
2023/09/15 02:23:26;;;;;;;17.42;13.73;;;14.00;99.90;;;;;;4945398;29;20431;-82
2023/09/15 02:25:52;;;;;;;18.55;14.05;;;14.00;99.90;;;;;;4944669;29;20031;-81
2023/09/15 02:28:21;;;;;;;17.30;14.02;;;14.00;99.90;;;;;;4944151;29;20506;-81
2023/09/15 02:30:47;;;;;;;18.52;14.20;;;14.00;99.90;;;;;;4942590;29;20042;-81
2023/09/15 02:33:13;;;;;;;17.98;13.52;;;13.90;99.90;;;;;;4942890;29;20277;-81
2023/09/15 02:35:38;;;;;;;20.48;14.70;;;13.90;99.90;;;;;;4926370;29;20716;-81
2023/09/15 02:38:04;;;;;;;19.17;13.95;;;13.90;99.90;;;;;;4944295;29;20106;-81
2023/09/15 02:40:30;;;;;;;19.63;14.27;;;13.90;99.90;;;;;;4942128;29;20035;-81
2023/09/15 02:42:56;;;;;;;26.90;14.48;;;13.90;99.90;;;;;;4943539;29;20031;-81
2023/09/15 02:45:21;;;;;;;18.30;13.40;;;13.80;99.90;;;;;;4943575;29;20028;-83
2023/09/15 02:47:47;;;;;;;18.08;14.23;;;13.80;99.90;;;;;;4942723;29;20721;-83
2023/09/15 02:50:12;;;;;;;16.63;13.98;;;13.80;99.90;;;;;;4942415;29;20094;-83
2023/09/15 02:52:38;;;;;;;17.95;13.73;;;13.80;99.90;;;;;;4943199;29;20027;-81
2023/09/15 02:55:08;;;;;;;24.85;15.57;;;13.70;99.90;;;;;;4943330;29;20069;-81
2023/09/15 02:57:33;;;;;;;19.33;14.60;;;13.70;99.90;;;;;;4943365;29;20103;-81
2023/09/15 02:59:59;;;;;;;20.67;14.77;;;13.70;99.90;;;;;;4942071;29;20808;-81
2023/09/15 03:02:24;;;;;;;22.70;15.70;;;13.70;99.90;;;;;;4941653;29;20031;-81
2023/09/15 03:04:50;;;;;;;19.10;14.30;;;13.70;99.90;;;;;;4940705;29;20074;-81
2023/09/15 03:07:16;;;;;;;19.42;15.98;;;13.70;99.90;;;;;;4942191;29;20031;-81
2023/09/15 03:09:42;;;;;;;20.45;15.00;;;13.70;99.90;;;;;;4940181;29;20027;-81
2023/09/15 03:12:07;;;;;;;17.83;13.05;;;13.70;99.90;;;;;;4941857;29;20053;-81
2023/09/15 03:14:33;;;;;;;20.50;13.93;;;13.60;99.90;;;;;;4940390;29;20391;-81
2023/09/15 03:16:59;;;;;;;20.30;14.43;;;13.60;99.90;;;;;;4941441;29;20104;-81
2023/09/15 03:19:25;;;;;;;17.58;14.75;;;13.50;99.90;;;;;;4940086;29;20036;-81
2023/09/15 03:21:51;;;;;;;19.92;14.93;;;13.50;99.90;;;;;;4940705;29;20126;-81
2023/09/15 03:24:17;;;;;;;18.58;14.27;;;13.50;99.90;;;;;;4940912;29;20030;-82
2023/09/15 03:26:42;;;;;;;18.83;15.55;;;13.50;99.90;;;;;;4938832;29;20035;-81
2023/09/15 03:29:08;;;;;;;20.27;15.55;;;13.50;99.90;;;;;;4938821;29;20030;-81
2023/09/15 03:31:34;;;;;;;17.25;13.50;;;13.40;99.90;;;;;;4940691;29;20038;-81
2023/09/15 03:34:00;;;;;;;18.20;11.57;;;13.40;99.90;;;;;;4940805;29;20050;-81
2023/09/15 03:36:29;;;;;;;13.60;11.88;;;13.40;99.90;;;;;;4942775;29;20116;-81
2023/09/15 03:38:57;;;;;;;16.38;12.30;;;13.30;99.90;;;;;;4939733;29;20031;-81
2023/09/15 03:41:27;;;;;;;15.00;11.82;;;13.30;99.90;;;;;;4939482;29;20032;-81
2023/09/15 03:43:53;;;;;;;17.90;13.82;;;13.30;99.90;;;;;;4941706;29;20031;-81
2023/09/15 03:46:19;;;;;;;18.17;13.48;;;13.20;99.90;;;;;;4940067;29;20149;-80
2023/09/15 03:48:44;;;;;;;17.58;14.32;;;13.20;99.90;;;;;;4940380;29;20038;-82
2023/09/15 03:51:10;;;;;;;18.23;13.98;;;13.20;99.90;;;;;;4940840;29;20050;-81
2023/09/15 03:53:35;;;;;;;17.08;14.27;;;13.20;99.90;;;;;;4926337;29;20043;-81
2023/09/15 03:56:01;;;;;;;16.40;14.00;;;13.20;99.90;;;;;;4945642;29;20062;-81
2023/09/15 03:58:28;;;;;;;17.45;13.85;;;13.10;99.90;;;;;;4946130;29;20083;-81
2023/09/15 04:00:53;;;;;;;17.58;13.55;;;13.10;99.90;;;;;;4954100;28;20043;-81
2023/09/15 04:03:20;;;;;;;16.85;13.27;;;13.10;99.90;;;;;;4931838;28;1032389;-79
2023/09/15 04:05:46;;;;;;;17.30;13.70;;;13.10;99.90;;;;;;4963870;28;20059;-81
2023/09/15 04:08:13;;;;;;;19.48;15.23;;;13.10;99.90;;;;;;4943411;29;20069;-81
2023/09/15 04:10:38;;;;;;;23.50;16.60;;;13.10;99.90;;;;;;4936111;29;20050;-81
2023/09/15 04:13:04;;;;;;;21.95;16.85;;;13.10;99.90;;;;;;4941241;29;20035;-81
2023/09/15 04:15:29;;;;;;;25.67;16.38;;;13.10;99.90;;;;;;4939737;29;20796;-81
2023/09/15 04:17:55;;;;;;;21.17;16.35;;;13.10;99.90;;;;;;4939204;29;20034;-81
2023/09/15 04:20:21;;;;;;;21.48;16.80;;;13.10;99.90;;;;;;4939741;29;21452;-81
2023/09/15 04:22:46;;;;;;;24.45;17.02;;;13.10;99.90;;;;;;4941210;29;20035;-80
2023/09/15 04:25:12;;;;;;;24.17;17.40;;;13.10;99.90;;;;;;4939473;29;20454;-81
2023/09/15 04:27:38;;;;;;;27.35;19.00;;;13.20;99.90;;;;;;4940829;29;20028;-81
2023/09/15 04:30:04;;;;;;;27.10;19.52;;;13.20;99.90;;;;;;4939239;29;20035;-81
2023/09/15 04:32:30;;;;;;;27.00;20.00;;;13.20;99.90;;;;;;4940900;29;20027;-81
2023/09/15 04:34:56;;;;;;;24.38;20.00;;;13.20;99.90;;;;;;4923428;29;20169;-81
2023/09/15 04:37:22;;;;;;;24.65;19.70;;;13.30;99.90;;;;;;4941198;29;20023;-81
2023/09/15 04:39:51;;;;;;;24.48;18.95;;;13.30;99.90;;;;;;4939748;29;20806;-81
2023/09/15 04:42:17;;;;;;;26.33;19.63;;;13.30;99.90;;;;;;4940968;29;20028;-81
2023/09/15 04:44:43;;;;;;;24.25;18.80;;;13.40;99.90;;;;;;4941700;29;20089;-81
2023/09/15 04:47:09;;;;;;;24.20;17.73;;;13.40;99.90;;;;;;4942728;29;20154;-81
2023/09/15 04:49:35;;;;;;;25.63;18.73;;;13.50;99.90;;;;;;4944028;29;20027;-81
2023/09/15 04:52:01;;;;;;;24.40;18.85;;;13.50;99.90;;;;;;4941073;29;20035;-81
2023/09/15 04:54:26;;;;;;;23.67;17.40;;;13.50;99.90;;;;;;4941511;29;20834;-81
2023/09/15 04:56:52;;;;;;;25.48;19.00;;;13.60;99.90;;;;;;4940662;29;20396;-81
2023/09/15 04:59:19;;;;;;;27.40;21.02;;;13.60;99.90;;;;;;4939339;29;20031;-81
2023/09/15 05:01:46;;;;;;;30.67;22.27;;;13.60;99.90;;;;;;4939356;29;20039;-81
2023/09/15 05:04:18;;;;;;;30.98;21.75;;;13.70;99.90;;;;;;4934712;29;20031;-81
2023/09/15 05:06:44;;;;;;;34.05;23.50;;;13.70;99.90;;;;;;4938600;29;20034;-82
2023/09/15 05:09:10;;;;;;;30.45;23.10;;;13.80;99.90;;;;;;4936913;29;20035;-82
2023/09/15 05:11:36;;;;;;;37.40;25.10;;;13.80;99.90;;;;;;4937368;29;20036;-82
2023/09/15 05:14:02;;;;;;;41.17;27.17;;;13.90;99.90;;;;;;4918975;29;20035;-82
2023/09/15 05:16:28;;;;;;;40.60;26.50;;;13.90;99.90;;;;;;4937581;29;20471;-82
2023/09/15 05:18:53;;;;;;;40.60;28.33;;;14.00;99.90;;;;;;4937077;29;20039;-82
2023/09/15 05:21:19;;;;;;;40.47;28.63;;;14.00;99.90;;;;;;4936409;29;20035;-82
2023/09/15 05:23:44;;;;;;;39.42;27.45;;;14.10;99.90;;;;;;4938213;29;20034;-82
2023/09/15 05:26:10;;;;;;;39.78;26.75;;;14.10;99.90;;;;;;4936655;29;20081;-82
2023/09/15 05:28:35;;;;;;;40.28;25.08;;;14.10;99.90;;;;;;4937333;29;20035;-82
2023/09/15 05:31:01;;;;;;;39.05;26.15;;;14.20;99.90;;;;;;4935788;29;20031;-83
2023/09/15 05:33:27;;;;;;;37.20;26.38;;;14.20;99.90;;;;;;4936154;29;21612;-83
2023/09/15 05:35:59;;;;;;;36.90;25.58;;;14.20;99.90;;;;;;4934717;29;20047;-83
2023/09/15 05:38:25;;;;;;;36.38;25.80;;;14.20;99.90;;;;;;4936081;29;20031;-83
2023/09/15 05:40:51;;;;;;;36.10;24.83;;;14.30;99.90;;;;;;4934504;29;20031;-83
2023/09/15 05:43:18;;;;;;;36.88;25.58;;;14.30;99.90;;;;;;4935099;29;20034;-83
2023/09/15 05:45:47;;;;;;;39.58;25.92;;;14.40;99.90;;;;;;4934260;29;20082;-84
2023/09/15 05:48:17;;;;;;;38.78;26.42;;;14.40;99.90;;;;;;4937315;29;20180;-83
2023/09/15 05:50:43;;;;;;;36.60;25.13;;;14.40;99.90;;;;;;4940697;29;20031;-83
2023/09/15 05:53:09;;;;;;;37.15;25.38;;;14.40;99.90;;;;;;4940318;29;21006;-83
2023/09/15 05:55:35;;;;;;;40.42;25.98;;;14.40;99.90;;;;;;4939826;29;20019;-84
2023/09/15 05:58:00;;;;;;;39.70;26.50;;;14.50;99.90;;;;;;4938497;29;20028;-83
2023/09/15 06:00:26;;;;;;;39.35;26.92;;;14.50;99.90;;;;;;4939086;29;20099;-84
2023/09/15 06:02:51;;;;;;;34.50;24.25;;;14.50;99.90;;;;;;4937600;29;20063;-83
2023/09/15 06:05:19;;;;;;;33.47;22.88;;;14.50;99.90;;;;;;4938147;29;20380;-83
2023/09/15 06:07:49;;;;;;;30.88;21.88;;;14.50;99.90;;;;;;4939426;29;20036;-84
2023/09/15 06:10:15;;;;;;;32.40;21.73;;;14.50;99.90;;;;;;4938675;29;20024;-83
2023/09/15 06:12:40;;;;;;;31.92;22.08;;;14.50;99.90;;;;;;4939411;29;20403;-83
2023/09/15 06:15:06;;;;;;;32.72;22.83;;;14.50;99.90;;;;;;4938612;29;20046;-84
2023/09/15 06:17:33;;;;;;;34.47;22.98;;;14.60;99.90;;;;;;4938679;29;20767;-83
2023/09/15 06:19:59;;;;;;;34.72;22.10;;;14.60;99.90;;;;;;4938735;29;20043;-84
2023/09/15 06:22:25;;;;;;;32.80;22.55;;;14.60;99.90;;;;;;4938498;28;20035;-84
2023/09/15 06:24:51;;;;;;;33.38;22.50;;;14.70;99.90;;;;;;4941460;29;20020;-84
2023/09/15 06:27:16;;;;;;;28.40;21.25;;;14.70;99.90;;;;;;4942796;29;20035;-83
2023/09/15 06:29:43;;;;;;;32.33;21.67;;;14.70;99.90;;;;;;4942314;29;20036;-84
2023/09/15 06:32:08;;;;;;;35.55;22.48;;;14.80;99.90;;;;;;4942499;29;21131;-83
2023/09/15 06:34:34;;;;;;;36.70;23.70;;;14.80;99.90;;;;;;4941599;29;20039;-84
2023/09/15 06:37:01;;;;;;;34.70;23.90;;;14.80;99.90;;;;;;4940721;29;20047;-84
2023/09/15 06:39:27;;;;;;;30.83;22.88;;;14.90;99.90;;;;;;4940983;29;20027;-83
2023/09/15 06:41:53;;;;;;;31.85;21.80;;;14.90;99.90;;;;;;4941928;29;20039;-83
2023/09/15 06:44:19;;;;;;;34.08;23.60;;;14.90;99.90;;;;;;4943949;29;20026;-83
2023/09/15 06:46:45;;;;;;;34.42;22.92;;;14.90;99.90;;;;;;4942561;29;20110;-84
2023/09/15 06:49:11;;;;;;;31.80;22.08;;;14.90;99.90;;;;;;4943408;29;20027;-83
2023/09/15 06:51:36;;;;;;;31.85;23.10;;;15.00;99.90;;;;;;4944952;29;20394;-84
2023/09/15 06:54:02;;;;;;;28.25;21.42;;;15.00;99.90;;;;;;4947836;29;20028;-83
2023/09/15 06:56:28;;;;;;;34.35;23.27;;;15.10;99.90;;;;;;4948094;29;20032;-83
2023/09/15 06:58:54;;;;;;;33.17;21.80;;;15.10;99.90;;;;;;4962602;28;20046;-82
2023/09/15 07:01:19;;;;;;;32.33;21.67;;;15.20;99.90;;;;;;4964469;28;20039;-82
2023/09/15 07:03:45;;;;;;;29.40;21.52;;;15.30;99.90;;;;;;4950241;29;20061;-83
2023/09/15 07:06:11;;;;;;;31.05;21.38;;;15.30;99.90;;;;;;4940157;29;20070;-84
2023/09/15 07:08:36;;;;;;;27.08;20.73;;;15.40;99.90;;;;;;4940056;29;20031;-84
2023/09/15 07:11:02;;;;;;;27.25;20.45;;;15.40;99.90;;;;;;4938273;29;20047;-84
2023/09/15 07:13:27;;;;;;;31.52;20.33;;;15.50;99.90;;;;;;4939543;29;20027;-84
2023/09/15 07:15:53;;;;;;;30.73;19.58;;;15.60;99.90;;;;;;4937894;29;20218;-83
2023/09/15 07:18:18;;;;;;;29.38;20.20;;;15.60;99.90;;;;;;4935334;29;20084;-84
2023/09/15 07:20:44;;;;;;;26.75;19.15;;;15.70;99.90;;;;;;4937561;29;20032;-84
2023/09/15 07:23:10;;;;;;;26.52;18.80;;;15.80;99.90;;;;;;4938554;29;20023;-84
2023/09/15 07:25:35;;;;;;;23.55;17.88;;;15.90;99.90;;;;;;4942738;29;20058;-84
2023/09/15 07:28:01;;;;;;;24.55;17.77;;;15.90;99.90;;;;;;4941004;29;20131;-84
2023/09/15 07:30:27;;;;;;;21.40;16.73;;;16.00;99.90;;;;;;4938311;29;20023;-83
2023/09/15 07:32:52;;;;;;;24.13;16.88;;;16.00;99.90;;;;;;4940540;29;20058;-83
2023/09/15 07:35:18;;;;;;;21.25;16.65;;;16.10;99.90;;;;;;4936710;28;20605;-84
2023/09/15 07:37:43;;;;;;;21.33;17.00;;;16.20;99.90;;;;;;4938183;29;20515;-84
2023/09/15 07:40:10;;;;;;;20.02;15.43;;;16.30;99.90;;;;;;4939247;29;20391;-84
2023/09/15 07:42:36;;;;;;;18.20;14.57;;;16.40;99.90;;;;;;4941117;29;20039;-84
2023/09/15 07:45:03;;;;;;;19.95;15.50;;;16.50;99.90;;;;;;4941806;29;20114;-84
2023/09/15 07:47:30;;;;;;;21.05;15.13;;;16.60;99.90;;;;;;4938329;29;20039;-85
2023/09/15 07:49:57;;;;;;;17.83;14.05;;;16.70;99.90;;;;;;4935125;29;20024;-84
2023/09/15 07:52:24;;;;;;;23.15;15.15;;;16.80;99.90;;;;;;4938060;29;20691;-84
2023/09/15 07:54:50;;;;;;;17.17;13.57;;;16.80;99.90;;;;;;4936170;29;20557;-84
2023/09/15 07:57:16;;;;;;;18.88;13.65;;;16.90;99.90;;;;;;4937246;29;20035;-84
2023/09/15 07:59:41;;;;;;;19.83;14.25;;;17.00;99.90;;;;;;4935719;29;20059;-84
2023/09/15 08:02:07;;;;;;;18.15;13.65;;;17.10;99.90;;;;;;4937792;29;21234;-84
2023/09/15 08:04:32;;;;;;;17.90;13.48;;;17.20;99.90;;;;;;4935127;29;21489;-84
2023/09/15 08:06:58;;;;;;;15.32;12.00;;;17.40;99.90;;;;;;4937648;29;20592;-84
2023/09/15 08:09:23;;;;;;;16.80;12.50;;;17.50;99.90;;;;;;4935004;29;20030;-84
2023/09/15 08:11:49;;;;;;;14.50;11.82;;;17.60;99.90;;;;;;4936494;29;20028;-84
2023/09/15 08:14:15;;;;;;;14.23;11.18;;;17.80;99.90;;;;;;4937349;29;21036;-84
2023/09/15 08:16:40;;;;;;;15.07;12.23;;;17.90;99.90;;;;;;4936368;29;20117;-84
2023/09/15 08:19:07;;;;;;;15.60;11.82;;;18.10;99.90;;;;;;4937183;29;20031;-84
2023/09/15 08:21:32;;;;;;;14.98;10.68;;;18.20;99.90;;;;;;4937270;29;20102;-84
2023/09/15 08:23:58;;;;;;;14.57;11.48;;;18.20;99.90;;;;;;4937508;29;20471;-84
2023/09/15 08:26:25;;;;;;;15.77;11.98;;;18.20;99.90;;;;;;4936552;29;20059;-84
2023/09/15 08:28:50;;;;;;;14.20;11.68;;;18.20;99.90;;;;;;4936562;29;20075;-84
2023/09/15 08:31:16;;;;;;;15.48;10.63;;;18.20;99.90;;;;;;4934444;29;20042;-84
2023/09/15 08:33:42;;;;;;;13.77;10.40;;;18.20;99.90;;;;;;4935864;29;20384;-84
2023/09/15 08:36:07;;;;;;;13.38;10.27;;;18.40;99.90;;;;;;4918752;29;20019;-84
2023/09/15 08:38:33;;;;;;;13.32;10.85;;;18.60;99.90;;;;;;4937091;29;20078;-84
2023/09/15 08:41:10;;;;;;;12.43;9.98;;;18.80;99.90;;;;;;4936146;29;20042;-84
2023/09/15 08:43:36;;;;;;;14.32;11.15;;;18.90;99.90;;;;;;4935824;29;20042;-84
2023/09/15 08:46:05;;;;;;;14.07;10.70;;;18.90;99.90;;;;;;4935441;29;20031;-84
2023/09/15 08:48:35;;;;;;;13.38;9.85;;;19.00;99.90;;;;;;4934423;28;20040;-84
2023/09/15 08:51:03;;;;;;;15.43;10.57;;;19.00;99.90;;;;;;4935114;29;20035;-84
2023/09/15 08:53:29;;;;;;;15.18;11.02;;;19.00;99.90;;;;;;4934975;29;20118;-84
2023/09/15 08:55:55;;;;;;;13.15;9.75;;;19.10;99.90;;;;;;4935766;29;20474;-84
2023/09/15 08:58:21;;;;;;;12.18;9.90;;;19.20;99.90;;;;;;4936928;29;20079;-84
2023/09/15 09:00:47;;;;;;;11.52;9.13;;;19.40;99.90;;;;;;4935044;29;20027;-83
2023/09/15 09:03:13;;;;;;;15.63;10.35;;;19.50;99.90;;;;;;4934385;29;20462;-84
2023/09/15 09:05:40;;;;;;;12.32;9.80;;;19.60;99.90;;;;;;4934579;29;20067;-84
2023/09/15 09:08:06;;;;;;;11.27;9.48;;;19.60;99.90;;;;;;4934405;29;20102;-85
2023/09/15 09:10:32;;;;;;;12.60;9.68;;;19.60;99.90;;;;;;4934337;29;20057;-83
2023/09/15 09:12:57;;;;;;;11.45;9.25;;;19.60;99.90;;;;;;4934657;29;20023;-84
2023/09/15 09:15:27;;;;;;;10.50;8.70;;;19.60;99.90;;;;;;4935294;29;20032;-84
2023/09/15 09:17:52;;;;;;;10.35;8.90;;;19.60;99.90;;;;;;4933745;29;20170;-84
2023/09/15 09:20:28;;;;;;;9.05;7.95;;;19.70;99.90;;;;;;4933988;29;20031;-84
2023/09/15 09:22:54;;;;;;;10.07;8.80;;;19.80;99.90;;;;;;4933444;29;20633;-84
2023/09/15 09:25:33;;;;;;;13.55;8.05;;;20.00;99.90;;;;;;4934422;29;20046;-82
2023/09/15 09:28:00;;;;;;;9.55;8.30;;;20.10;99.90;;;;;;4934095;29;20406;-73
2023/09/15 09:30:29;;;;;;;12.88;9.27;;;20.20;99.90;;;;;;4932049;29;20039;-72
2023/09/15 09:32:56;;;;;;;13.60;8.05;;;20.40;99.90;;;;;;4934835;29;20027;-81
2023/09/15 09:35:22;;;;;;;10.95;8.43;;;20.50;99.90;;;;;;4941671;29;20067;-84
2023/09/15 09:37:48;;;;;;;10.45;8.55;;;20.60;99.90;;;;;;4942748;29;20525;-83
2023/09/15 09:40:16;;;;;;;10.57;8.32;;;20.60;99.90;;;;;;4940890;29;20038;-83
2023/09/15 09:42:42;;;;;;;11.43;8.60;;;20.70;99.90;;;;;;4935315;29;20031;-83
2023/09/15 09:45:08;;;;;;;11.35;8.63;;;20.80;99.90;;;;;;4936916;29;20035;-83
2023/09/15 09:47:34;;;;;;;9.80;8.48;;;21.20;99.90;;;;;;4937599;29;20495;-83
2023/09/15 09:50:10;;;;;;;9.80;8.27;;;21.40;99.90;;;;;;4939736;29;20043;-84
2023/09/15 09:52:37;;;;;;;10.05;8.65;;;21.40;99.90;;;;;;4952808;28;20040;-82
2023/09/15 09:55:09;;;;;;;8.40;7.50;;;21.60;99.90;;;;;;4960722;28;20094;-82
2023/09/15 09:57:38;;;;;;;10.10;8.32;;;21.60;99.90;;;;;;4953428;28;20110;-84
2023/09/15 10:00:09;;;;;;;9.75;7.93;;;21.60;99.90;;;;;;4937899;29;20087;-84
2023/09/15 10:02:36;;;;;;;11.52;8.52;;;21.60;99.90;;;;;;4938714;29;20035;-84
2023/09/15 10:05:02;;;;;;;11.63;8.05;;;21.60;99.90;;;;;;4937669;29;20038;-83
2023/09/15 10:07:28;;;;;;;9.95;7.80;;;21.80;99.90;;;;;;4939055;29;20132;-83
2023/09/15 10:09:54;;;;;;;11.15;8.02;;;21.80;99.90;;;;;;4935642;29;20371;-85
2023/09/15 10:12:22;;;;;;;9.98;7.43;;;21.80;99.90;;;;;;4938300;29;20094;-84
2023/09/15 10:14:48;;;;;;;8.88;7.93;;;22.10;99.90;;;;;;4937328;29;20027;-81
2023/09/15 10:17:13;;;;;;;8.82;7.18;;;22.20;99.90;;;;;;4938710;29;20038;-82
2023/09/15 10:19:42;;;;;;;8.65;6.47;;;22.40;99.90;;;;;;4936277;29;20055;-80
2023/09/15 10:22:08;;;;;;;7.32;5.85;;;22.60;99.90;;;;;;4937681;29;20054;-81
2023/09/15 10:24:33;;;;;;;7.90;6.45;;;22.70;99.90;;;;;;4937525;29;20154;-82
2023/09/15 10:26:59;;;;;;;8.77;6.35;;;22.80;99.90;;;;;;4937804;29;20028;-82
2023/09/15 10:29:31;;;;;;;9.13;6.65;;;23.00;99.90;;;;;;4936546;29;20055;-82
2023/09/15 10:32:02;;;;;;;7.88;6.28;;;22.90;99.90;;;;;;4937595;29;20027;-82
2023/09/15 10:34:27;;;;;;;10.65;6.13;;;22.90;99.90;;;;;;4937076;29;20023;-82
2023/09/15 10:36:53;;;;;;;9.80;6.85;;;23.00;99.90;;;;;;4937253;29;20077;-82
2023/09/15 10:39:19;;;;;;;8.60;6.63;;;23.10;99.90;;;;;;4935613;29;20107;-82
2023/09/15 10:41:45;;;;;;;9.95;7.00;;;23.40;99.90;;;;;;4938839;29;20031;-82
2023/09/15 10:44:11;;;;;;;9.00;6.45;;;23.50;99.90;;;;;;4937312;29;20038;-82
2023/09/15 10:46:42;;;;;;;7.40;6.43;;;23.60;99.90;;;;;;4937637;29;20054;-82
2023/09/15 10:49:19;;;;;;;8.30;6.70;;;23.60;99.90;;;;;;4937373;29;20081;-82
2023/09/15 10:51:58;;;;;;;7.63;6.82;;;23.70;99.90;;;;;;4937584;29;20055;-82
2023/09/15 10:54:38;;;;;;;7.35;6.55;;;24.00;99.90;;;;;;4936347;29;20510;-82
2023/09/15 10:57:03;;;;;;;6.63;5.93;;;24.10;99.90;;;;;;4937654;29;20780;-82
2023/09/15 10:59:29;;;;;;;6.80;5.82;;;24.10;99.90;;;;;;4935707;29;20118;-83
2023/09/15 11:01:55;;;;;;;7.22;6.43;;;24.10;99.90;;;;;;4936409;29;20050;-84
2023/09/15 11:04:21;;;;;;;7.80;6.82;;;24.20;99.90;;;;;;4936266;29;20145;-82
2023/09/15 11:06:48;;;;;;;7.38;6.68;;;24.30;99.90;;;;;;4936732;29;20059;-83
2023/09/15 11:09:15;;;;;;;7.72;6.65;;;24.40;99.90;;;;;;4934594;29;20035;-84
2023/09/15 11:11:51;;;;;;;9.88;6.45;;;24.30;99.90;;;;;;4935858;29;20058;-84
2023/09/15 11:14:19;;;;;;;9.00;6.93;;;24.30;99.90;;;;;;4936047;29;20070;-84
2023/09/15 11:16:48;;;;;;;8.52;7.10;;;24.40;99.90;;;;;;4935207;29;20027;-84
2023/09/15 11:19:15;;;;;;;9.10;7.60;;;24.50;99.90;;;;;;4934479;29;20035;-83
2023/09/15 11:21:40;;;;;;;7.47;6.60;;;24.50;99.90;;;;;;4935763;29;20031;-84
2023/09/15 11:24:09;;;;;;;9.55;8.38;;;24.60;99.90;;;;;;4935746;29;20030;-84
2023/09/15 11:26:36;;;;;;;9.63;7.35;;;24.70;99.90;;;;;;4936202;29;20031;-83
2023/09/15 11:29:05;;;;;;;9.98;7.63;;;24.70;99.90;;;;;;4935072;29;20031;-83
2023/09/15 11:31:35;;;;;;;8.02;7.22;;;24.80;99.90;;;;;;4935705;29;20222;-84
2023/09/15 11:34:01;;;;;;;10.77;8.10;;;24.70;99.90;;;;;;4935703;29;20041;-83
2023/09/15 11:36:27;;;;;;;9.85;7.88;;;24.60;99.90;;;;;;4935188;29;20111;-84
2023/09/15 11:38:52;;;;;;;10.35;8.48;;;24.60;99.90;;;;;;4936540;29;20035;-83
2023/09/15 11:41:27;;;;;;;10.38;7.97;;;24.50;99.90;;;;;;4935526;29;20035;-84
2023/09/15 11:43:53;;;;;;;11.40;8.48;;;24.30;99.90;;;;;;4937338;29;20056;-84
2023/09/15 11:46:19;;;;;;;7.70;6.85;;;24.30;99.90;;;;;;4935567;29;20032;-83
2023/09/15 11:48:48;;;;;;;8.55;7.07;;;24.40;99.90;;;;;;4936116;29;20510;-84
2023/09/15 11:51:14;;;;;;;9.00;7.50;;;24.60;99.90;;;;;;4934538;29;20135;-84
2023/09/15 11:53:41;;;;;;;8.48;7.07;;;24.70;99.90;;;;;;4936444;29;20027;-82
2023/09/15 11:56:08;;;;;;;8.95;6.75;;;24.80;99.90;;;;;;4936539;29;20383;-82
2023/09/15 11:58:34;;;;;;;8.35;7.43;;;24.90;99.90;;;;;;4936246;29;20051;-82
2023/09/15 12:01:01;;;;;;;8.70;7.78;;;25.00;99.90;;;;;;4935250;29;20035;-82
2023/09/15 12:03:29;;;;;;;9.40;7.60;;;25.10;99.90;;;;;;4936385;29;20032;-82
2023/09/15 12:05:55;;;;;;;8.45;6.75;;;25.00;99.90;;;;;;4935214;29;20880;-82
2023/09/15 12:08:21;;;;;;;10.43;8.07;;;25.10;99.90;;;;;;4934471;29;20034;-82
2023/09/15 12:10:47;;;;;;;8.27;5.97;;;25.10;99.90;;;;;;4935171;29;20031;-81
2023/09/15 12:13:13;;;;;;;8.43;7.53;;;25.20;99.90;;;;;;4935821;29;20039;-82
2023/09/15 12:15:38;;;;;;;6.65;5.95;;;25.20;99.90;;;;;;4933786;29;20050;-82
2023/09/15 12:18:08;;;;;;;7.60;6.38;;;25.30;99.90;;;;;;4934877;29;20046;-82
2023/09/15 12:20:36;;;;;;;7.18;6.47;;;25.40;99.90;;;;;;4933912;28;20059;-82
2023/09/15 12:23:11;;;;;;;6.85;6.15;;;25.60;99.90;;;;;;4934979;29;20803;-82
2023/09/15 12:25:37;;;;;;;7.00;5.78;;;25.50;99.90;;;;;;4934692;29;20099;-81
2023/09/15 12:28:03;;;;;;;5.85;5.30;;;25.60;99.90;;;;;;4936230;29;20039;-82
2023/09/15 12:30:29;;;;;;;5.78;5.18;;;25.60;99.90;;;;;;4933504;29;20047;-81
2023/09/15 12:32:55;;;;;;;7.70;5.40;;;25.60;99.90;;;;;;4934985;29;20046;-83